createdAt,value
2023-03-29T00:01:36.078Z,8.32
2023-03-29T00:04:06.362Z,11.65
2023-03-29T00:06:33.598Z,11.90
2023-03-29T00:09:01.594Z,12.23
2023-03-29T00:11:27.991Z,6.30
2023-03-29T00:13:54.416Z,12.63
2023-03-29T00:16:21.114Z,9.02
2023-03-29T00:18:47.524Z,15.25
2023-03-29T00:21:14.121Z,9.55
2023-03-29T00:23:40.704Z,13.32
2023-03-29T00:26:08.216Z,11.65
2023-03-29T00:28:35.367Z,11.38
2023-03-29T00:31:11.276Z,10.68
2023-03-29T00:33:38.865Z,14.88
2023-03-29T00:36:07.100Z,10.20
2023-03-29T00:38:33.784Z,15.52
2023-03-29T00:41:00.640Z,10.32
2023-03-29T00:43:27.441Z,10.75
2023-03-29T00:45:53.863Z,12.50
2023-03-29T00:48:25.714Z,10.15
2023-03-29T00:51:07.054Z,9.43
2023-03-29T00:53:46.775Z,9.20
2023-03-29T00:56:25.126Z,9.80
2023-03-29T00:59:05.312Z,11.13
2023-03-29T01:01:54.650Z,12.60
2023-03-29T01:04:46.540Z,11.05
2023-03-29T01:07:23.117Z,9.20
2023-03-29T01:09:55.249Z,11.07
2023-03-29T01:12:32.667Z,7.20
2023-03-29T01:15:06.368Z,9.65
2023-03-29T01:17:33.017Z,9.10
2023-03-29T01:20:13.749Z,11.63
2023-03-29T01:23:00.746Z,10.13
2023-03-29T01:25:43.679Z,9.55
2023-03-29T01:28:14.614Z,12.48
2023-03-29T01:30:49.860Z,11.48
2023-03-29T01:33:28.388Z,9.88
2023-03-29T01:36:08.094Z,8.88
2023-03-29T01:38:42.785Z,9.02
2023-03-29T01:41:10.829Z,9.35
2023-03-29T01:43:47.070Z,8.77
2023-03-29T01:46:39.820Z,11.70
2023-03-29T01:49:18.661Z,11.77
2023-03-29T01:51:52.061Z,11.13
2023-03-29T01:54:21.998Z,12.60
2023-03-29T01:56:51.212Z,11.45
2023-03-29T01:59:22.508Z,12.32
2023-03-29T02:01:53.576Z,13.82
2023-03-29T02:04:25.401Z,9.85
2023-03-29T02:06:54.585Z,10.60
2023-03-29T02:09:21.946Z,9.95
2023-03-29T02:11:51.431Z,10.57
2023-03-29T02:14:17.805Z,9.40
2023-03-29T02:16:46.119Z,8.75
2023-03-29T02:19:13.511Z,10.05
2023-03-29T02:22:06.942Z,8.43
2023-03-29T02:24:36.501Z,9.73
2023-03-29T02:27:04.399Z,9.43
2023-03-29T02:29:31.137Z,8.88
2023-03-29T02:32:27.296Z,10.63
2023-03-29T02:35:12.951Z,8.85
2023-03-29T02:37:44.159Z,11.48
2023-03-29T02:40:13.912Z,13.48
2023-03-29T02:42:43.962Z,9.45
2023-03-29T02:45:15.153Z,9.40
2023-03-29T02:47:45.783Z,9.98
2023-03-29T02:50:12.798Z,10.60
2023-03-29T02:52:43.081Z,11.02
2023-03-29T02:55:14.939Z,12.57
2023-03-29T02:57:43.459Z,6.80
2023-03-29T03:00:11.717Z,10.02
2023-03-29T03:02:38.265Z,12.30
2023-03-29T03:05:06.342Z,7.53
2023-03-29T03:07:33.678Z,9.20
2023-03-29T03:10:00.160Z,10.82
2023-03-29T03:12:27.544Z,12.55
2023-03-29T03:14:54.542Z,9.18
2023-03-29T03:17:20.965Z,13.38
2023-03-29T03:19:47.459Z,14.52
2023-03-29T03:22:14.855Z,11.10
2023-03-29T03:24:42.568Z,8.75
2023-03-29T03:27:10.993Z,6.65
2023-03-29T03:29:38.564Z,11.07
2023-03-29T03:32:17.381Z,14.80
2023-03-29T03:35:07.624Z,8.50
2023-03-29T03:37:34.058Z,9.75
2023-03-29T03:40:00.537Z,8.05
2023-03-29T03:42:29.519Z,8.25
2023-03-29T03:44:56.475Z,12.75
2023-03-29T03:47:45.909Z,8.20
2023-03-29T03:50:21.703Z,12.75
2023-03-29T03:52:48.089Z,12.10
2023-03-29T03:55:14.537Z,10.48
2023-03-29T03:57:47.836Z,9.27
2023-03-29T04:00:21.063Z,10.00
2023-03-29T04:02:59.639Z,9.70
2023-03-29T04:05:26.296Z,11.77
2023-03-29T04:07:54.156Z,11.02
2023-03-29T04:10:52.941Z,9.77
2023-03-29T04:13:25.700Z,7.63
2023-03-29T04:16:18.001Z,8.85
2023-03-29T04:18:44.583Z,9.82
2023-03-29T04:21:11.111Z,8.98
2023-03-29T04:23:37.579Z,13.73
2023-03-29T04:26:04.904Z,12.88
2023-03-29T04:28:56.327Z,11.00
2023-03-29T04:31:32.214Z,14.10
2023-03-29T04:34:17.382Z,9.63
2023-03-29T04:36:45.718Z,14.35
2023-03-29T04:39:18.741Z,10.55
2023-03-29T04:41:48.444Z,15.10
2023-03-29T04:44:21.878Z,10.75
2023-03-29T04:46:48.665Z,8.52
2023-03-29T04:49:34.002Z,10.65
2023-03-29T04:52:00.895Z,13.50
2023-03-29T04:54:29.808Z,16.38
2023-03-29T04:57:22.180Z,11.27
2023-03-29T05:00:14.678Z,8.63
2023-03-29T05:02:59.730Z,14.57
2023-03-29T05:05:28.715Z,15.27
2023-03-29T05:07:57.059Z,7.05
2023-03-29T05:10:29.720Z,12.10
2023-03-29T05:12:56.849Z,13.13
2023-03-29T05:15:23.302Z,13.27
2023-03-29T05:17:49.999Z,14.93
2023-03-29T05:20:18.228Z,15.02
2023-03-29T05:22:53.532Z,13.02
2023-03-29T05:25:40.491Z,12.32
2023-03-29T05:28:06.986Z,9.27
2023-03-29T05:30:33.837Z,17.90
2023-03-29T05:33:09.253Z,12.20
2023-03-29T05:35:36.290Z,10.73
2023-03-29T05:38:06.366Z,14.35
2023-03-29T05:40:33.790Z,13.45
2023-03-29T05:43:12.220Z,11.80
2023-03-29T05:45:38.904Z,12.75
2023-03-29T05:48:05.808Z,16.33
2023-03-29T05:50:33.129Z,11.73
2023-03-29T05:52:59.901Z,12.60
2023-03-29T05:55:26.342Z,14.82
2023-03-29T05:57:52.792Z,16.48
2023-03-29T06:00:23.722Z,15.48
2023-03-29T06:03:06.414Z,12.55
2023-03-29T06:05:36.826Z,15.40
2023-03-29T06:08:05.157Z,14.93
2023-03-29T06:11:02.469Z,14.07
2023-03-29T06:13:51.693Z,15.95
2023-03-29T06:16:18.182Z,17.33
2023-03-29T06:18:44.788Z,18.67
2023-03-29T06:21:11.250Z,24.10
2023-03-29T06:23:38.011Z,16.25
2023-03-29T06:26:05.733Z,15.82
2023-03-29T06:28:32.270Z,14.32
2023-03-29T06:31:03.075Z,14.80
2023-03-29T06:33:37.180Z,12.98
2023-03-29T06:36:22.285Z,16.13
2023-03-29T06:38:49.072Z,12.63
2023-03-29T06:41:26.466Z,12.60
2023-03-29T06:44:13.016Z,14.63
2023-03-29T06:46:53.254Z,13.52
2023-03-29T06:49:20.651Z,17.38
2023-03-29T06:52:16.222Z,15.68
2023-03-29T06:54:44.777Z,14.98
2023-03-29T06:57:13.315Z,11.52
2023-03-29T06:59:39.842Z,16.85
2023-03-29T07:02:33.922Z,13.82
2023-03-29T07:05:11.792Z,14.20
2023-03-29T07:07:59.683Z,16.35
2023-03-29T07:10:39.378Z,13.35
2023-03-29T07:13:26.150Z,12.40
2023-03-29T07:15:53.449Z,14.38
2023-03-29T07:18:24.647Z,15.13
2023-03-29T07:20:52.117Z,18.27
2023-03-29T07:23:18.615Z,14.68
2023-03-29T07:25:46.906Z,15.73
2023-03-29T07:28:13.544Z,13.68
2023-03-29T07:30:39.957Z,13.18
2023-03-29T07:33:12.199Z,14.32
2023-03-29T07:35:47.687Z,11.07
2023-03-29T07:38:15.467Z,12.98
2023-03-29T07:40:46.969Z,14.38
2023-03-29T07:43:32.372Z,11.88
2023-03-29T07:46:04.809Z,9.98
2023-03-29T07:48:33.587Z,13.02
2023-03-29T07:51:05.063Z,14.77
2023-03-29T07:53:42.739Z,14.75
2023-03-29T07:56:32.395Z,12.00
2023-03-29T07:59:10.877Z,10.90
2023-03-29T08:01:40.835Z,14.85
2023-03-29T08:04:16.746Z,11.05
2023-03-29T08:07:01.993Z,12.18
2023-03-29T08:09:46.605Z,16.52
2023-03-29T08:12:13.110Z,10.68
2023-03-29T08:14:39.509Z,13.40
2023-03-29T08:17:13.064Z,10.93
2023-03-29T08:19:50.731Z,11.70
2023-03-29T08:22:20.919Z,11.13
2023-03-29T08:25:05.520Z,14.25
2023-03-29T08:27:37.571Z,11.27
2023-03-29T08:30:06.529Z,13.88
2023-03-29T08:32:36.744Z,10.85
2023-03-29T08:35:05.300Z,20.30
2023-03-29T08:37:37.859Z,11.65
2023-03-29T08:40:06.096Z,11.60
2023-03-29T08:42:56.691Z,10.98
2023-03-29T08:45:32.511Z,13.38
2023-03-29T08:48:25.420Z,11.15
2023-03-29T08:50:57.146Z,9.25
2023-03-29T08:53:41.358Z,10.13
2023-03-29T08:56:27.328Z,10.50
2023-03-29T08:59:28.733Z,12.20
2023-03-29T09:01:57.820Z,13.48
2023-03-29T09:04:28.448Z,12.55
2023-03-29T09:07:09.272Z,10.93
2023-03-29T09:09:42.169Z,12.07
2023-03-29T09:12:34.644Z,14.40
2023-03-29T09:15:15.205Z,10.05
2023-03-29T09:17:52.900Z,15.30
2023-03-29T09:20:30.055Z,11.77
2023-03-29T09:23:24.711Z,12.90
2023-03-29T09:26:19.478Z,12.25
2023-03-29T09:29:20.400Z,9.07
2023-03-29T09:31:48.390Z,15.05
2023-03-29T09:34:42.710Z,10.95
2023-03-29T09:37:25.673Z,15.40
2023-03-29T09:39:53.132Z,13.48
2023-03-29T09:42:23.822Z,7.00
2023-03-29T09:44:53.991Z,12.45
2023-03-29T09:47:37.426Z,9.77
2023-03-29T09:50:30.874Z,7.60
2023-03-29T09:53:01.108Z,10.35
2023-03-29T09:55:32.287Z,9.68
2023-03-29T09:58:14.763Z,8.80
2023-03-29T10:00:46.341Z,9.75
2023-03-29T10:03:24.686Z,9.88
2023-03-29T10:06:03.569Z,9.35
2023-03-29T10:08:40.716Z,7.95
2023-03-29T10:11:29.986Z,10.18
2023-03-29T10:14:01.919Z,14.02
2023-03-29T10:16:33.243Z,8.93
2023-03-29T10:19:27.022Z,12.45
2023-03-29T10:21:55.686Z,11.82
2023-03-29T10:24:23.547Z,16.40
2023-03-29T10:26:55.788Z,7.35
2023-03-29T10:29:24.696Z,10.15
2023-03-29T10:31:51.925Z,13.95
2023-03-29T10:34:18.834Z,10.55
2023-03-29T10:36:59.031Z,8.52
2023-03-29T10:39:30.062Z,11.40
2023-03-29T10:41:59.626Z,9.63
2023-03-29T10:44:33.272Z,11.20
2023-03-29T10:47:17.485Z,10.75
2023-03-29T10:49:47.806Z,9.48
2023-03-29T10:52:16.332Z,11.68
2023-03-29T10:54:43.524Z,16.95
2023-03-29T10:57:15.789Z,10.73
2023-03-29T11:00:02.146Z,9.48
2023-03-29T11:02:47.680Z,14.93
2023-03-29T11:05:26.379Z,13.00
2023-03-29T11:08:15.256Z,12.00
2023-03-29T11:10:58.958Z,14.35
2023-03-29T11:13:50.625Z,12.35
2023-03-29T11:16:29.891Z,12.65
2023-03-29T11:19:23.958Z,12.50
2023-03-29T11:22:08.620Z,9.60
2023-03-29T11:25:08.054Z,10.32
2023-03-29T11:27:51.000Z,16.00
2023-03-29T11:30:35.110Z,14.75
2023-03-29T11:33:20.795Z,11.77
2023-03-29T11:36:20.699Z,14.55
2023-03-29T11:39:05.669Z,13.45
2023-03-29T11:41:35.039Z,17.17
2023-03-29T11:44:14.715Z,15.63
2023-03-29T11:46:46.779Z,17.48
2023-03-29T11:49:26.538Z,10.75
2023-03-29T11:52:06.244Z,10.45
2023-03-29T11:54:45.376Z,11.88
2023-03-29T11:57:22.379Z,15.45
2023-03-29T12:00:02.171Z,11.43
2023-03-29T12:02:49.847Z,14.20
2023-03-29T12:05:30.846Z,16.27
2023-03-29T12:08:04.999Z,14.50
2023-03-29T12:10:40.453Z,16.38
2023-03-29T12:13:16.516Z,19.70
2023-03-29T12:15:48.141Z,16.25
2023-03-29T12:18:39.350Z,13.30
2023-03-29T12:21:12.165Z,20.60
2023-03-29T12:23:43.173Z,15.45
2023-03-29T12:26:36.299Z,16.10
2023-03-29T12:29:35.216Z,16.25
2023-03-29T12:32:31.966Z,17.58
2023-03-29T12:36:02.176Z,16.23
2023-03-29T12:38:51.723Z,17.88
2023-03-29T12:41:38.179Z,14.38
2023-03-29T12:44:32.957Z,15.75
2023-03-29T12:47:25.241Z,19.23
2023-03-29T12:49:56.025Z,14.68
2023-03-29T12:52:34.087Z,11.15
2023-03-29T12:55:20.854Z,14.60
2023-03-29T12:58:20.758Z,16.27
2023-03-29T13:00:47.972Z,12.90
2023-03-29T13:03:39.194Z,13.25
2023-03-29T13:06:10.779Z,14.35
2023-03-29T13:08:42.502Z,14.82
2023-03-29T13:11:25.226Z,18.40
2023-03-29T13:13:52.304Z,13.43
2023-03-29T13:16:28.643Z,12.07
2023-03-29T13:19:19.967Z,13.30
2023-03-29T13:22:15.713Z,12.73
2023-03-29T13:24:47.861Z,11.52
2023-03-29T13:27:26.170Z,14.32
2023-03-29T13:29:55.489Z,12.95
2023-03-29T13:32:31.956Z,10.68
2023-03-29T13:35:12.587Z,13.48
2023-03-29T13:37:57.853Z,15.15
2023-03-29T13:40:30.118Z,14.82
2023-03-29T13:43:08.642Z,13.82
2023-03-29T13:45:35.955Z,18.10
2023-03-29T13:48:27.085Z,12.98
2023-03-29T13:51:00.901Z,14.48
2023-03-29T13:53:39.283Z,19.55
2023-03-29T13:56:10.918Z,11.98
2023-03-29T13:58:48.222Z,11.90
2023-03-29T14:01:31.890Z,14.00
2023-03-29T14:03:59.253Z,12.52
2023-03-29T14:06:30.433Z,12.45
2023-03-29T14:08:56.836Z,16.40
2023-03-29T14:11:26.519Z,11.30
2023-03-29T14:13:55.707Z,10.63
2023-03-29T14:16:26.115Z,13.75
2023-03-29T14:18:52.887Z,11.02
2023-03-29T14:21:20.929Z,11.63
2023-03-29T14:23:54.161Z,15.20
2023-03-29T14:26:23.895Z,12.43
2023-03-29T14:28:56.578Z,10.18
2023-03-29T14:31:31.272Z,11.45
2023-03-29T14:34:02.770Z,11.82
2023-03-29T14:36:32.236Z,10.20
2023-03-29T14:39:06.029Z,11.45
2023-03-29T14:41:35.535Z,13.60
2023-03-29T14:44:03.222Z,15.55
2023-03-29T14:46:29.933Z,16.55
2023-03-29T14:48:57.148Z,13.32
2023-03-29T14:51:30.180Z,14.70
2023-03-29T14:54:02.830Z,12.02
2023-03-29T14:56:32.454Z,14.68
2023-03-29T14:59:02.132Z,13.80
2023-03-29T15:01:28.576Z,14.15
2023-03-29T15:04:03.132Z,13.43
2023-03-29T15:06:39.928Z,11.25
2023-03-29T15:09:07.098Z,14.68
2023-03-29T15:11:34.960Z,11.57
2023-03-29T15:14:04.967Z,12.60
2023-03-29T15:16:31.853Z,13.77
2023-03-29T15:19:01.393Z,11.85
2023-03-29T15:21:32.948Z,13.38
2023-03-29T15:24:03.635Z,15.98
2023-03-29T15:26:33.626Z,17.50
2023-03-29T15:29:09.198Z,15.95
2023-03-29T15:31:38.366Z,14.18
2023-03-29T15:34:10.798Z,17.30
2023-03-29T15:36:45.080Z,13.32
2023-03-29T15:39:13.651Z,17.02
2023-03-29T15:41:41.291Z,16.38
2023-03-29T15:44:07.706Z,16.85
2023-03-29T15:46:34.107Z,18.13
2023-03-29T15:49:00.668Z,15.55
2023-03-29T15:51:27.389Z,15.48
2023-03-29T15:53:53.742Z,17.15
2023-03-29T15:56:24.345Z,16.10
2023-03-29T15:58:50.831Z,16.20
2023-03-29T16:01:35.010Z,18.75
2023-03-29T16:04:06.752Z,18.38
2023-03-29T16:06:34.252Z,16.73
2023-03-29T16:09:00.989Z,14.98
2023-03-29T16:11:28.232Z,16.83
2023-03-29T16:13:55.661Z,17.02
2023-03-29T16:16:22.411Z,15.10
2023-03-29T16:18:48.885Z,16.90
2023-03-29T16:21:18.090Z,16.42
2023-03-29T16:23:47.714Z,15.60
2023-03-29T16:26:16.560Z,17.67
2023-03-29T16:28:43.428Z,15.65
2023-03-29T16:31:11.790Z,17.73
2023-03-29T16:33:38.877Z,14.88
2023-03-29T16:36:06.315Z,14.75
2023-03-29T16:38:33.665Z,17.15
2023-03-29T16:41:00.611Z,14.15
2023-03-29T16:43:27.747Z,18.85
2023-03-29T16:45:56.913Z,16.70
2023-03-29T16:48:23.719Z,15.43
2023-03-29T16:50:50.630Z,18.23
2023-03-29T16:53:18.494Z,17.73
2023-03-29T16:55:46.034Z,21.58
2023-03-29T16:58:12.389Z,16.23
2023-03-29T17:00:40.840Z,18.05
2023-03-29T17:03:07.922Z,20.40
2023-03-29T17:05:39.797Z,19.02
2023-03-29T17:08:06.672Z,19.92
2023-03-29T17:10:33.146Z,18.02
2023-03-29T17:12:59.515Z,17.80
2023-03-29T17:15:25.914Z,18.50
2023-03-29T17:17:52.375Z,18.25
2023-03-29T17:20:19.005Z,17.63
2023-03-29T17:22:45.570Z,15.00
2023-03-29T17:25:11.932Z,20.00
2023-03-29T17:27:38.332Z,20.23
2023-03-29T17:30:06.296Z,17.42
2023-03-29T17:32:32.813Z,17.70
2023-03-29T17:34:59.465Z,20.35
2023-03-29T17:37:27.700Z,17.63
2023-03-29T17:39:54.672Z,18.30
2023-03-29T17:42:21.073Z,17.80
2023-03-29T17:44:47.420Z,18.10
2023-03-29T17:47:13.801Z,16.70
2023-03-29T17:49:40.475Z,17.35
2023-03-29T17:52:06.867Z,19.55
2023-03-29T17:54:33.277Z,19.90
2023-03-29T17:56:59.689Z,15.65
2023-03-29T17:59:26.082Z,17.58
2023-03-29T18:01:52.515Z,19.58
2023-03-29T18:04:18.949Z,18.17
2023-03-29T18:06:45.700Z,18.63
2023-03-29T18:09:12.976Z,20.67
2023-03-29T18:11:39.335Z,23.10
2023-03-29T18:14:05.892Z,18.05
2023-03-29T18:16:32.437Z,22.55
2023-03-29T18:18:58.875Z,20.90
2023-03-29T18:21:26.202Z,21.63
2023-03-29T18:23:55.556Z,21.48
2023-03-29T18:26:23.367Z,20.20
2023-03-29T18:28:50.694Z,22.15
2023-03-29T18:31:17.300Z,18.75
2023-03-29T18:33:43.688Z,22.95
2023-03-29T18:36:13.241Z,18.48
2023-03-29T18:38:42.917Z,19.08
2023-03-29T18:41:11.995Z,19.48
2023-03-29T18:43:39.697Z,17.70
2023-03-29T18:46:07.728Z,17.88
2023-03-29T18:48:38.622Z,18.30
2023-03-29T18:51:10.859Z,22.08
2023-03-29T18:53:38.767Z,18.50
2023-03-29T18:56:06.440Z,19.02
2023-03-29T18:58:32.973Z,17.13
2023-03-29T19:01:04.196Z,18.10
2023-03-29T19:03:34.744Z,19.90
2023-03-29T19:06:02.985Z,21.23
2023-03-29T19:08:29.640Z,21.23
2023-03-29T19:11:05.783Z,16.05
2023-03-29T19:13:33.593Z,18.27
2023-03-29T19:16:00.403Z,18.55
2023-03-29T19:18:27.561Z,25.05
2023-03-29T19:20:54.297Z,18.98
2023-03-29T19:23:27.074Z,18.45
2023-03-29T19:26:02.684Z,17.98
2023-03-29T19:28:29.730Z,15.57
2023-03-29T19:30:58.601Z,19.73
2023-03-29T19:33:25.585Z,22.23
2023-03-29T19:35:52.356Z,20.13
2023-03-29T19:38:20.063Z,22.83
2023-03-29T19:40:48.687Z,18.27
2023-03-29T19:43:16.575Z,19.85
2023-03-29T19:45:47.242Z,20.00
2023-03-29T19:48:21.900Z,26.52
2023-03-29T19:50:49.385Z,23.70
2023-03-29T19:53:15.849Z,22.33
2023-03-29T19:55:44.120Z,22.80
2023-03-29T19:58:10.540Z,20.90
2023-03-29T20:00:38.625Z,21.45
2023-03-29T20:03:05.493Z,20.30
2023-03-29T20:05:32.443Z,24.58
2023-03-29T20:07:58.803Z,24.00
2023-03-29T20:10:25.352Z,21.50
2023-03-29T20:12:51.812Z,20.75
2023-03-29T20:15:18.984Z,23.80
2023-03-29T20:17:59.474Z,21.67
2023-03-29T20:20:33.104Z,21.63
2023-03-29T20:23:04.600Z,19.90
2023-03-29T20:25:32.292Z,20.05
2023-03-29T20:27:59.560Z,23.02
2023-03-29T20:30:26.282Z,20.42
2023-03-29T20:32:52.710Z,21.48
2023-03-29T20:35:19.144Z,19.88
2023-03-29T20:37:45.695Z,20.73
2023-03-29T20:40:12.855Z,22.45
2023-03-29T20:42:39.320Z,23.13
2023-03-29T20:45:07.718Z,24.10
2023-03-29T20:47:42.155Z,22.88
2023-03-29T20:50:10.375Z,22.33
2023-03-29T20:52:36.768Z,21.48
2023-03-29T20:55:03.527Z,21.88
2023-03-29T20:57:30.643Z,22.73
2023-03-29T20:59:57.120Z,19.08
2023-03-29T21:02:23.597Z,21.45
2023-03-29T21:04:53.658Z,21.77
2023-03-29T21:07:21.559Z,22.85
2023-03-29T21:09:49.781Z,21.00
2023-03-29T21:12:16.693Z,20.40
2023-03-29T21:14:43.471Z,21.10
2023-03-29T21:17:14.251Z,20.48
2023-03-29T21:19:41.205Z,23.58
2023-03-29T21:22:07.537Z,18.58
2023-03-29T21:24:36.273Z,20.77
2023-03-29T21:27:02.682Z,22.50
2023-03-29T21:29:29.147Z,21.02
2023-03-29T21:31:55.775Z,20.77
2023-03-29T21:34:22.577Z,20.83
2023-03-29T21:36:49.512Z,21.02
2023-03-29T21:39:16.010Z,22.73
2023-03-29T21:41:42.400Z,21.38
2023-03-29T21:44:08.979Z,21.33
2023-03-29T21:46:35.501Z,17.80
2023-03-29T21:49:01.892Z,20.88
2023-03-29T21:51:28.334Z,21.85
2023-03-29T21:53:54.702Z,21.10
2023-03-29T21:56:22.373Z,21.10
2023-03-29T21:58:48.840Z,23.30
2023-03-29T22:01:18.984Z,21.10
2023-03-29T22:03:46.592Z,22.38
2023-03-29T22:06:14.318Z,24.13
2023-03-29T22:08:40.735Z,24.20
2023-03-29T22:11:14.111Z,20.73
2023-03-29T22:13:41.461Z,21.75
2023-03-29T22:16:08.554Z,23.85
2023-03-29T22:18:43.510Z,21.83
2023-03-29T22:21:13.832Z,27.13
2023-03-29T22:23:42.407Z,20.90
2023-03-29T22:26:11.302Z,24.25
2023-03-29T22:28:38.603Z,21.60
2023-03-29T22:31:10.996Z,22.73
2023-03-29T22:33:38.083Z,23.35
2023-03-29T22:36:13.563Z,25.38
2023-03-29T22:38:39.953Z,22.70
2023-03-29T22:41:06.597Z,23.52
2023-03-29T22:43:33.028Z,26.63
2023-03-29T22:45:59.454Z,22.52
2023-03-29T22:48:25.889Z,22.95
2023-03-29T22:50:52.415Z,28.10
2023-03-29T22:53:18.830Z,29.20
2023-03-29T22:55:46.126Z,28.52
2023-03-29T22:58:12.566Z,30.02
2023-03-29T23:00:38.972Z,28.92
2023-03-29T23:03:06.450Z,31.63
2023-03-29T23:05:43.301Z,28.05
2023-03-29T23:08:09.887Z,32.25
2023-03-29T23:10:36.402Z,29.02
2023-03-29T23:13:09.023Z,27.88
2023-03-29T23:15:37.155Z,28.80
2023-03-29T23:18:04.572Z,29.70
2023-03-29T23:20:32.380Z,26.77
2023-03-29T23:22:59.324Z,24.08
2023-03-29T23:25:26.422Z,27.10
2023-03-29T23:27:53.918Z,25.38
2023-03-29T23:30:21.619Z,25.55
2023-03-29T23:32:49.275Z,24.38
2023-03-29T23:35:16.513Z,28.08
2023-03-29T23:37:43.346Z,29.40
2023-03-29T23:40:15.405Z,26.08
2023-03-29T23:42:44.382Z,25.70
2023-03-29T23:45:13.539Z,28.55
2023-03-29T23:47:40.991Z,26.77
2023-03-29T23:50:09.379Z,27.08
2023-03-29T23:52:37.048Z,28.20
2023-03-29T23:55:04.643Z,27.10
2023-03-29T23:57:33.957Z,27.05
